sensor_id;sensor_type;location;lat;lon;timestamp;temperature;humidity
76936;DHT22;65881;52.438;16.744;2023-12-28T00:02:10;0.80;99.90
76936;DHT22;65881;52.438;16.744;2023-12-28T00:04:47;0.80;99.90
76936;DHT22;65881;52.438;16.744;2023-12-28T00:07:12;0.80;99.90
76936;DHT22;65881;52.438;16.744;2023-12-28T00:09:39;0.90;99.90
76936;DHT22;65881;52.438;16.744;2023-12-28T00:12:05;0.90;99.90
76936;DHT22;65881;52.438;16.744;2023-12-28T00:14:34;1.00;99.90
76936;DHT22;65881;52.438;16.744;2023-12-28T00:16:59;0.90;99.90
76936;DHT22;65881;52.438;16.744;2023-12-28T00:19:25;0.90;99.90
76936;DHT22;65881;52.438;16.744;2023-12-28T00:21:50;0.80;99.90
76936;DHT22;65881;52.438;16.744;2023-12-28T00:24:41;0.80;99.90
76936;DHT22;65881;52.438;16.744;2023-12-28T00:27:07;0.80;99.90
76936;DHT22;65881;52.438;16.744;2023-12-28T00:29:33;0.80;99.90
76936;DHT22;65881;52.438;16.744;2023-12-28T00:32:00;0.80;99.90
76936;DHT22;65881;52.438;16.744;2023-12-28T00:34:27;0.80;99.90
76936;DHT22;65881;52.438;16.744;2023-12-28T00:36:55;0.80;99.90
76936;DHT22;65881;52.438;16.744;2023-12-28T00:39:20;0.80;99.90
76936;DHT22;65881;52.438;16.744;2023-12-28T00:41:46;0.70;99.90
76936;DHT22;65881;52.438;16.744;2023-12-28T00:44:14;0.60;99.90
76936;DHT22;65881;52.438;16.744;2023-12-28T00:46:40;0.60;99.90
76936;DHT22;65881;52.438;16.744;2023-12-28T00:49:05;0.60;99.90
76936;DHT22;65881;52.438;16.744;2023-12-28T00:51:44;0.60;99.90
76936;DHT22;65881;52.438;16.744;2023-12-28T00:54:22;0.60;99.90
76936;DHT22;65881;52.438;16.744;2023-12-28T00:56:47;0.60;99.90
76936;DHT22;65881;52.438;16.744;2023-12-28T00:59:13;0.60;99.90
76936;DHT22;65881;52.438;16.744;2023-12-28T01:01:41;0.60;99.90
76936;DHT22;65881;52.438;16.744;2023-12-28T01:04:13;0.70;99.90
76936;DHT22;65881;52.438;16.744;2023-12-28T01:06:39;0.80;99.90
76936;DHT22;65881;52.438;16.744;2023-12-28T01:09:06;0.80;99.90
76936;DHT22;65881;52.438;16.744;2023-12-28T01:11:32;0.80;99.90
76936;DHT22;65881;52.438;16.744;2023-12-28T01:13:58;0.80;99.90
76936;DHT22;65881;52.438;16.744;2023-12-28T01:16:24;0.80;99.90
76936;DHT22;65881;52.438;16.744;2023-12-28T01:18:56;0.80;99.90
76936;DHT22;65881;52.438;16.744;2023-12-28T01:21:27;0.70;99.90
76936;DHT22;65881;52.438;16.744;2023-12-28T01:27:26;0.70;99.90
76936;DHT22;65881;52.438;16.744;2023-12-28T01:30:04;0.70;99.90
76936;DHT22;65881;52.438;16.744;2023-12-28T01:32:30;0.70;99.90
76936;DHT22;65881;52.438;16.744;2023-12-28T01:34:55;0.70;99.90
76936;DHT22;65881;52.438;16.744;2023-12-28T01:37:21;0.70;99.90
76936;DHT22;65881;52.438;16.744;2023-12-28T01:39:47;0.70;99.90
76936;DHT22;65881;52.438;16.744;2023-12-28T01:42:13;0.70;99.90
76936;DHT22;65881;52.438;16.744;2023-12-28T01:44:38;0.70;99.90
76936;DHT22;65881;52.438;16.744;2023-12-28T01:47:05;0.70;99.90
76936;DHT22;65881;52.438;16.744;2023-12-28T01:49:31;0.70;99.90
76936;DHT22;65881;52.438;16.744;2023-12-28T01:51:57;0.70;99.90
76936;DHT22;65881;52.438;16.744;2023-12-28T01:54:24;0.70;99.90
76936;DHT22;65881;52.438;16.744;2023-12-28T01:56:52;0.80;99.90
76936;DHT22;65881;52.438;16.744;2023-12-28T01:59:18;0.80;99.90
76936;DHT22;65881;52.438;16.744;2023-12-28T02:01:44;0.80;99.90
76936;DHT22;65881;52.438;16.744;2023-12-28T02:04:10;0.80;99.90
76936;DHT22;65881;52.438;16.744;2023-12-28T02:06:36;0.80;99.90
76936;DHT22;65881;52.438;16.744;2023-12-28T02:09:02;0.80;99.90
76936;DHT22;65881;52.438;16.744;2023-12-28T02:11:28;0.80;99.90
76936;DHT22;65881;52.438;16.744;2023-12-28T02:13:58;0.80;99.90
76936;DHT22;65881;52.438;16.744;2023-12-28T02:17:09;0.80;99.90
76936;DHT22;65881;52.438;16.744;2023-12-28T02:19:43;0.80;99.90
76936;DHT22;65881;52.438;16.744;2023-12-28T02:22:10;0.80;99.90
76936;DHT22;65881;52.438;16.744;2023-12-28T02:27:21;0.70;99.90
76936;DHT22;65881;52.438;16.744;2023-12-28T02:29:47;0.70;99.90
76936;DHT22;65881;52.438;16.744;2023-12-28T02:32:13;0.70;99.90
76936;DHT22;65881;52.438;16.744;2023-12-28T02:34:43;0.60;99.90
76936;DHT22;65881;52.438;16.744;2023-12-28T02:37:12;0.60;99.90
76936;DHT22;65881;52.438;16.744;2023-12-28T02:39:39;0.70;99.90
76936;DHT22;65881;52.438;16.744;2023-12-28T02:42:06;0.70;99.90
76936;DHT22;65881;52.438;16.744;2023-12-28T02:44:32;0.80;99.90
76936;DHT22;65881;52.438;16.744;2023-12-28T02:46:57;0.80;99.90
76936;DHT22;65881;52.438;16.744;2023-12-28T02:49:23;0.80;99.90
76936;DHT22;65881;52.438;16.744;2023-12-28T02:51:49;0.60;99.90
76936;DHT22;65881;52.438;16.744;2023-12-28T02:54:14;0.60;99.90
76936;DHT22;65881;52.438;16.744;2023-12-28T02:56:40;0.60;99.90
76936;DHT22;65881;52.438;16.744;2023-12-28T02:59:06;0.60;99.90
76936;DHT22;65881;52.438;16.744;2023-12-28T03:01:32;0.70;99.90
76936;DHT22;65881;52.438;16.744;2023-12-28T03:03:57;0.70;99.90
76936;DHT22;65881;52.438;16.744;2023-12-28T03:06:23;0.60;99.90
76936;DHT22;65881;52.438;16.744;2023-12-28T03:08:49;0.60;99.90
76936;DHT22;65881;52.438;16.744;2023-12-28T03:11:15;0.70;99.90
76936;DHT22;65881;52.438;16.744;2023-12-28T03:13:40;0.70;99.90
76936;DHT22;65881;52.438;16.744;2023-12-28T03:16:06;0.70;99.90
76936;DHT22;65881;52.438;16.744;2023-12-28T03:18:32;0.70;99.90
76936;DHT22;65881;52.438;16.744;2023-12-28T03:20:58;0.70;99.90
76936;DHT22;65881;52.438;16.744;2023-12-28T03:23:24;0.60;99.90
76936;DHT22;65881;52.438;16.744;2023-12-28T03:26:00;0.60;99.90
76936;DHT22;65881;52.438;16.744;2023-12-28T03:28:26;0.60;99.90
76936;DHT22;65881;52.438;16.744;2023-12-28T03:30:52;0.60;99.90
76936;DHT22;65881;52.438;16.744;2023-12-28T03:33:18;0.70;99.90
76936;DHT22;65881;52.438;16.744;2023-12-28T03:35:43;0.70;99.90
76936;DHT22;65881;52.438;16.744;2023-12-28T03:38:09;0.80;99.90
76936;DHT22;65881;52.438;16.744;2023-12-28T03:40:35;0.80;99.90
76936;DHT22;65881;52.438;16.744;2023-12-28T03:43:03;0.80;99.90
76936;DHT22;65881;52.438;16.744;2023-12-28T03:45:28;0.80;99.90
76936;DHT22;65881;52.438;16.744;2023-12-28T03:47:54;0.90;99.90
76936;DHT22;65881;52.438;16.744;2023-12-28T03:50:20;1.00;99.90
76936;DHT22;65881;52.438;16.744;2023-12-28T03:52:45;1.10;99.90
76936;DHT22;65881;52.438;16.744;2023-12-28T03:55:11;1.30;99.90
76936;DHT22;65881;52.438;16.744;2023-12-28T03:57:36;1.40;99.90
76936;DHT22;65881;52.438;16.744;2023-12-28T04:00:02;1.40;99.90
76936;DHT22;65881;52.438;16.744;2023-12-28T04:02:28;1.50;99.90
76936;DHT22;65881;52.438;16.744;2023-12-28T04:04:59;1.60;99.90
76936;DHT22;65881;52.438;16.744;2023-12-28T04:07:25;1.60;99.90
76936;DHT22;65881;52.438;16.744;2023-12-28T04:09:52;1.70;99.90
76936;DHT22;65881;52.438;16.744;2023-12-28T04:12:17;1.70;99.90
76936;DHT22;65881;52.438;16.744;2023-12-28T04:14:43;1.80;99.90
76936;DHT22;65881;52.438;16.744;2023-12-28T04:17:08;1.90;99.90
76936;DHT22;65881;52.438;16.744;2023-12-28T04:19:34;1.90;99.90
76936;DHT22;65881;52.438;16.744;2023-12-28T04:22:00;1.90;99.90
76936;DHT22;65881;52.438;16.744;2023-12-28T04:24:25;1.90;99.90
76936;DHT22;65881;52.438;16.744;2023-12-28T04:26:51;1.90;99.90
76936;DHT22;65881;52.438;16.744;2023-12-28T04:29:16;2.00;99.90
76936;DHT22;65881;52.438;16.744;2023-12-28T04:31:42;2.00;99.90
76936;DHT22;65881;52.438;16.744;2023-12-28T04:34:08;1.90;99.90
76936;DHT22;65881;52.438;16.744;2023-12-28T04:36:40;2.00;99.90
76936;DHT22;65881;52.438;16.744;2023-12-28T04:39:06;2.00;99.90
76936;DHT22;65881;52.438;16.744;2023-12-28T04:41:32;2.10;99.90
76936;DHT22;65881;52.438;16.744;2023-12-28T04:43:58;2.10;99.90
76936;DHT22;65881;52.438;16.744;2023-12-28T04:46:23;2.20;99.90
76936;DHT22;65881;52.438;16.744;2023-12-28T04:48:57;2.20;99.90
76936;DHT22;65881;52.438;16.744;2023-12-28T04:51:22;2.20;99.90
76936;DHT22;65881;52.438;16.744;2023-12-28T04:53:48;2.20;99.90
76936;DHT22;65881;52.438;16.744;2023-12-28T04:56:18;2.20;99.90
76936;DHT22;65881;52.438;16.744;2023-12-28T04:58:44;2.20;99.90
76936;DHT22;65881;52.438;16.744;2023-12-28T05:01:10;2.20;99.90
76936;DHT22;65881;52.438;16.744;2023-12-28T05:03:44;2.20;99.90
76936;DHT22;65881;52.438;16.744;2023-12-28T05:06:11;2.20;99.90
76936;DHT22;65881;52.438;16.744;2023-12-28T05:08:39;2.30;99.90
76936;DHT22;65881;52.438;16.744;2023-12-28T05:11:05;2.30;99.90
76936;DHT22;65881;52.438;16.744;2023-12-28T05:13:31;2.30;99.90
76936;DHT22;65881;52.438;16.744;2023-12-28T05:15:57;2.30;99.90
76936;DHT22;65881;52.438;16.744;2023-12-28T05:18:22;2.30;99.90
76936;DHT22;65881;52.438;16.744;2023-12-28T05:20:49;2.40;99.90
76936;DHT22;65881;52.438;16.744;2023-12-28T05:23:15;2.40;99.90
76936;DHT22;65881;52.438;16.744;2023-12-28T05:25:40;2.40;99.90
76936;DHT22;65881;52.438;16.744;2023-12-28T05:28:06;2.40;99.90
76936;DHT22;65881;52.438;16.744;2023-12-28T05:30:32;2.40;99.90
76936;DHT22;65881;52.438;16.744;2023-12-28T05:33:10;2.40;99.90
76936;DHT22;65881;52.438;16.744;2023-12-28T05:35:49;2.50;99.90
76936;DHT22;65881;52.438;16.744;2023-12-28T05:38:15;2.50;99.90
76936;DHT22;65881;52.438;16.744;2023-12-28T05:40:41;2.60;99.90
76936;DHT22;65881;52.438;16.744;2023-12-28T05:43:06;2.70;99.90
76936;DHT22;65881;52.438;16.744;2023-12-28T05:45:32;2.80;99.90
76936;DHT22;65881;52.438;16.744;2023-12-28T05:47:58;2.80;99.90
76936;DHT22;65881;52.438;16.744;2023-12-28T05:50:30;2.90;99.90
76936;DHT22;65881;52.438;16.744;2023-12-28T05:52:56;2.90;99.90
76936;DHT22;65881;52.438;16.744;2023-12-28T05:55:37;3.00;99.90
76936;DHT22;65881;52.438;16.744;2023-12-28T05:58:03;3.10;99.90
76936;DHT22;65881;52.438;16.744;2023-12-28T06:00:28;3.10;99.90
76936;DHT22;65881;52.438;16.744;2023-12-28T06:02:57;3.10;99.90
76936;DHT22;65881;52.438;16.744;2023-12-28T06:05:22;3.20;99.90
76936;DHT22;65881;52.438;16.744;2023-12-28T06:08:05;3.30;99.90
76936;DHT22;65881;52.438;16.744;2023-12-28T06:10:31;3.30;99.90
76936;DHT22;65881;52.438;16.744;2023-12-28T06:13:08;3.40;99.90
76936;DHT22;65881;52.438;16.744;2023-12-28T06:15:34;3.50;99.90
76936;DHT22;65881;52.438;16.744;2023-12-28T06:20:33;3.50;99.90
76936;DHT22;65881;52.438;16.744;2023-12-28T06:22:59;3.50;99.90
76936;DHT22;65881;52.438;16.744;2023-12-28T06:25:24;3.50;99.90
76936;DHT22;65881;52.438;16.744;2023-12-28T06:27:50;3.50;99.90
76936;DHT22;65881;52.438;16.744;2023-12-28T06:30:16;3.50;99.90
76936;DHT22;65881;52.438;16.744;2023-12-28T06:32:41;3.50;99.90
76936;DHT22;65881;52.438;16.744;2023-12-28T06:35:10;3.50;99.90
76936;DHT22;65881;52.438;16.744;2023-12-28T06:37:35;3.50;99.90
76936;DHT22;65881;52.438;16.744;2023-12-28T06:40:01;3.60;99.90
76936;DHT22;65881;52.438;16.744;2023-12-28T06:42:27;3.70;99.90
76936;DHT22;65881;52.438;16.744;2023-12-28T06:44:59;3.80;99.90
76936;DHT22;65881;52.438;16.744;2023-12-28T06:47:27;3.80;99.90
76936;DHT22;65881;52.438;16.744;2023-12-28T06:49:56;3.90;99.90
76936;DHT22;65881;52.438;16.744;2023-12-28T06:52:21;4.00;99.90
76936;DHT22;65881;52.438;16.744;2023-12-28T06:54:50;4.00;99.90
76936;DHT22;65881;52.438;16.744;2023-12-28T06:57:21;4.10;99.90
76936;DHT22;65881;52.438;16.744;2023-12-28T06:59:56;4.10;99.90
76936;DHT22;65881;52.438;16.744;2023-12-28T07:02:25;4.10;99.90
76936;DHT22;65881;52.438;16.744;2023-12-28T07:05:04;4.20;99.90
76936;DHT22;65881;52.438;16.744;2023-12-28T07:07:29;4.20;99.90
76936;DHT22;65881;52.438;16.744;2023-12-28T07:10:03;4.30;99.90
76936;DHT22;65881;52.438;16.744;2023-12-28T07:12:28;4.40;99.90
76936;DHT22;65881;52.438;16.744;2023-12-28T07:14:54;4.50;99.90
76936;DHT22;65881;52.438;16.744;2023-12-28T07:17:20;4.50;99.90
76936;DHT22;65881;52.438;16.744;2023-12-28T07:19:45;4.60;99.90
76936;DHT22;65881;52.438;16.744;2023-12-28T07:22:11;4.70;99.90
76936;DHT22;65881;52.438;16.744;2023-12-28T07:24:37;4.70;99.90
76936;DHT22;65881;52.438;16.744;2023-12-28T07:27:02;4.70;99.90
76936;DHT22;65881;52.438;16.744;2023-12-28T07:29:28;4.80;99.90
76936;DHT22;65881;52.438;16.744;2023-12-28T07:31:54;4.70;99.90
76936;DHT22;65881;52.438;16.744;2023-12-28T07:34:20;4.80;99.90
76936;DHT22;65881;52.438;16.744;2023-12-28T07:36:45;4.90;99.90
76936;DHT22;65881;52.438;16.744;2023-12-28T07:39:11;4.90;99.90
76936;DHT22;65881;52.438;16.744;2023-12-28T07:41:37;4.90;99.90
76936;DHT22;65881;52.438;16.744;2023-12-28T07:44:03;4.90;99.90
76936;DHT22;65881;52.438;16.744;2023-12-28T07:46:28;4.90;99.90
76936;DHT22;65881;52.438;16.744;2023-12-28T07:48:54;5.00;99.90
76936;DHT22;65881;52.438;16.744;2023-12-28T07:51:19;5.00;99.90
76936;DHT22;65881;52.438;16.744;2023-12-28T07:53:45;5.00;99.90
76936;DHT22;65881;52.438;16.744;2023-12-28T07:58:40;5.10;99.90
76936;DHT22;65881;52.438;16.744;2023-12-28T08:01:15;5.20;99.90
76936;DHT22;65881;52.438;16.744;2023-12-28T08:03:43;5.20;99.90
76936;DHT22;65881;52.438;16.744;2023-12-28T08:06:21;5.20;99.90
76936;DHT22;65881;52.438;16.744;2023-12-28T08:08:47;5.20;99.90
76936;DHT22;65881;52.438;16.744;2023-12-28T08:11:17;5.20;99.90
76936;DHT22;65881;52.438;16.744;2023-12-28T08:13:42;5.30;99.90
76936;DHT22;65881;52.438;16.744;2023-12-28T08:16:23;5.30;99.90
76936;DHT22;65881;52.438;16.744;2023-12-28T08:19:04;5.30;99.90
76936;DHT22;65881;52.438;16.744;2023-12-28T08:21:42;5.30;99.90
76936;DHT22;65881;52.438;16.744;2023-12-28T08:24:11;5.30;99.90
76936;DHT22;65881;52.438;16.744;2023-12-28T08:26:39;5.30;99.90
76936;DHT22;65881;52.438;16.744;2023-12-28T08:29:11;5.40;99.90
76936;DHT22;65881;52.438;16.744;2023-12-28T08:31:37;5.50;99.90
76936;DHT22;65881;52.438;16.744;2023-12-28T08:34:06;5.50;99.90
76936;DHT22;65881;52.438;16.744;2023-12-28T08:36:37;5.50;99.90
76936;DHT22;65881;52.438;16.744;2023-12-28T08:39:06;5.50;99.90
76936;DHT22;65881;52.438;16.744;2023-12-28T08:41:32;5.50;99.90
76936;DHT22;65881;52.438;16.744;2023-12-28T08:43:58;5.60;99.90
76936;DHT22;65881;52.438;16.744;2023-12-28T08:46:23;5.60;99.90
76936;DHT22;65881;52.438;16.744;2023-12-28T08:48:52;5.70;99.90
76936;DHT22;65881;52.438;16.744;2023-12-28T08:51:22;5.70;99.90
76936;DHT22;65881;52.438;16.744;2023-12-28T08:56:24;5.80;99.90
76936;DHT22;65881;52.438;16.744;2023-12-28T08:58:50;5.80;99.90
76936;DHT22;65881;52.438;16.744;2023-12-28T09:01:22;5.90;99.90
76936;DHT22;65881;52.438;16.744;2023-12-28T09:03:48;5.90;99.90
76936;DHT22;65881;52.438;16.744;2023-12-28T09:06:15;5.90;99.90
76936;DHT22;65881;52.438;16.744;2023-12-28T09:08:42;6.00;99.90
76936;DHT22;65881;52.438;16.744;2023-12-28T09:11:11;6.00;99.90
76936;DHT22;65881;52.438;16.744;2023-12-28T09:13:38;6.00;99.90
76936;DHT22;65881;52.438;16.744;2023-12-28T09:16:04;5.90;99.90
76936;DHT22;65881;52.438;16.744;2023-12-28T09:18:30;5.90;99.90
76936;DHT22;65881;52.438;16.744;2023-12-28T09:20:56;6.00;99.90
76936;DHT22;65881;52.438;16.744;2023-12-28T09:23:21;6.00;99.90
76936;DHT22;65881;52.438;16.744;2023-12-28T09:25:47;6.10;99.90
76936;DHT22;65881;52.438;16.744;2023-12-28T09:28:13;6.20;99.90
76936;DHT22;65881;52.438;16.744;2023-12-28T09:30:39;6.20;99.90
76936;DHT22;65881;52.438;16.744;2023-12-28T09:33:04;6.30;99.90
76936;DHT22;65881;52.438;16.744;2023-12-28T09:35:31;6.30;99.90
76936;DHT22;65881;52.438;16.744;2023-12-28T09:37:56;6.40;99.90
76936;DHT22;65881;52.438;16.744;2023-12-28T09:40:24;6.30;99.90
76936;DHT22;65881;52.438;16.744;2023-12-28T09:43:17;6.40;99.90
76936;DHT22;65881;52.438;16.744;2023-12-28T09:45:48;6.40;99.90
76936;DHT22;65881;52.438;16.744;2023-12-28T09:48:18;6.50;99.90
76936;DHT22;65881;52.438;16.744;2023-12-28T09:50:54;6.40;99.90
76936;DHT22;65881;52.438;16.744;2023-12-28T09:53:24;6.50;99.90
76936;DHT22;65881;52.438;16.744;2023-12-28T09:55:50;6.50;99.90
76936;DHT22;65881;52.438;16.744;2023-12-28T09:58:20;6.60;99.90
76936;DHT22;65881;52.438;16.744;2023-12-28T10:00:49;6.60;99.90
76936;DHT22;65881;52.438;16.744;2023-12-28T10:03:16;6.60;99.90
76936;DHT22;65881;52.438;16.744;2023-12-28T10:05:46;6.60;99.90
76936;DHT22;65881;52.438;16.744;2023-12-28T10:08:12;6.60;99.90
76936;DHT22;65881;52.438;16.744;2023-12-28T10:10:44;6.60;99.90
76936;DHT22;65881;52.438;16.744;2023-12-28T10:13:16;6.60;99.90
76936;DHT22;65881;52.438;16.744;2023-12-28T10:15:43;6.60;99.90
76936;DHT22;65881;52.438;16.744;2023-12-28T10:18:09;6.60;99.90
76936;DHT22;65881;52.438;16.744;2023-12-28T10:20:35;6.60;99.90
76936;DHT22;65881;52.438;16.744;2023-12-28T10:23:00;6.60;99.90
76936;DHT22;65881;52.438;16.744;2023-12-28T10:25:27;6.60;99.90
76936;DHT22;65881;52.438;16.744;2023-12-28T10:27:53;6.60;99.90
76936;DHT22;65881;52.438;16.744;2023-12-28T10:30:22;6.60;99.90
76936;DHT22;65881;52.438;16.744;2023-12-28T10:32:49;6.60;99.90
76936;DHT22;65881;52.438;16.744;2023-12-28T10:35:14;6.50;99.90
76936;DHT22;65881;52.438;16.744;2023-12-28T10:37:41;6.60;99.90
76936;DHT22;65881;52.438;16.744;2023-12-28T10:40:10;6.60;99.90
76936;DHT22;65881;52.438;16.744;2023-12-28T10:43:06;6.60;99.90
76936;DHT22;65881;52.438;16.744;2023-12-28T10:45:52;6.60;99.90
76936;DHT22;65881;52.438;16.744;2023-12-28T10:48:36;6.70;99.90
76936;DHT22;65881;52.438;16.744;2023-12-28T10:51:17;6.60;99.90
76936;DHT22;65881;52.438;16.744;2023-12-28T10:56:46;6.70;99.90
76936;DHT22;65881;52.438;16.744;2023-12-28T11:02:11;6.70;99.90
76936;DHT22;65881;52.438;16.744;2023-12-28T11:04:49;6.70;99.90
76936;DHT22;65881;52.438;16.744;2023-12-28T11:07:17;6.70;99.90
76936;DHT22;65881;52.438;16.744;2023-12-28T11:09:43;6.80;99.90
76936;DHT22;65881;52.438;16.744;2023-12-28T11:12:10;6.80;99.90
76936;DHT22;65881;52.438;16.744;2023-12-28T11:14:39;6.80;99.90
76936;DHT22;65881;52.438;16.744;2023-12-28T11:17:05;6.80;99.90
76936;DHT22;65881;52.438;16.744;2023-12-28T11:19:32;6.80;99.90
76936;DHT22;65881;52.438;16.744;2023-12-28T11:21:58;6.80;99.90
76936;DHT22;65881;52.438;16.744;2023-12-28T11:24:27;6.80;99.90
76936;DHT22;65881;52.438;16.744;2023-12-28T11:26:53;6.80;99.90
76936;DHT22;65881;52.438;16.744;2023-12-28T11:29:20;6.80;99.90
76936;DHT22;65881;52.438;16.744;2023-12-28T11:31:53;6.80;99.90
76936;DHT22;65881;52.438;16.744;2023-12-28T11:34:24;6.80;99.90
76936;DHT22;65881;52.438;16.744;2023-12-28T11:36:52;6.80;99.90
76936;DHT22;65881;52.438;16.744;2023-12-28T11:39:34;6.90;99.90
76936;DHT22;65881;52.438;16.744;2023-12-28T11:44:52;6.90;99.90
76936;DHT22;65881;52.438;16.744;2023-12-28T11:47:25;6.90;99.90
76936;DHT22;65881;52.438;16.744;2023-12-28T11:49:53;6.90;99.90
76936;DHT22;65881;52.438;16.744;2023-12-28T11:54:49;6.90;99.90
76936;DHT22;65881;52.438;16.744;2023-12-28T11:57:16;7.00;99.90
76936;DHT22;65881;52.438;16.744;2023-12-28T11:59:41;7.00;99.90
76936;DHT22;65881;52.438;16.744;2023-12-28T12:02:07;7.00;99.90
76936;DHT22;65881;52.438;16.744;2023-12-28T12:04:34;7.00;99.90
76936;DHT22;65881;52.438;16.744;2023-12-28T12:07:03;7.00;99.90
76936;DHT22;65881;52.438;16.744;2023-12-28T12:09:30;7.00;99.90
76936;DHT22;65881;52.438;16.744;2023-12-28T12:12:03;7.00;99.90
76936;DHT22;65881;52.438;16.744;2023-12-28T12:14:32;7.00;99.90
76936;DHT22;65881;52.438;16.744;2023-12-28T12:17:00;7.00;99.90
76936;DHT22;65881;52.438;16.744;2023-12-28T12:19:26;7.00;99.90
76936;DHT22;65881;52.438;16.744;2023-12-28T12:21:52;7.00;99.90
76936;DHT22;65881;52.438;16.744;2023-12-28T12:24:44;7.00;99.90
76936;DHT22;65881;52.438;16.744;2023-12-28T12:27:18;7.00;99.90
76936;DHT22;65881;52.438;16.744;2023-12-28T12:29:53;7.00;99.90
76936;DHT22;65881;52.438;16.744;2023-12-28T12:32:18;7.00;99.90
76936;DHT22;65881;52.438;16.744;2023-12-28T12:34:51;7.00;99.90
76936;DHT22;65881;52.438;16.744;2023-12-28T12:37:17;7.00;99.90
76936;DHT22;65881;52.438;16.744;2023-12-28T12:39:43;7.00;99.90
76936;DHT22;65881;52.438;16.744;2023-12-28T12:42:13;7.00;99.90
76936;DHT22;65881;52.438;16.744;2023-12-28T12:44:39;7.10;99.90
76936;DHT22;65881;52.438;16.744;2023-12-28T12:47:05;7.20;99.90
76936;DHT22;65881;52.438;16.744;2023-12-28T12:49:31;7.30;99.90
76936;DHT22;65881;52.438;16.744;2023-12-28T12:52:03;7.30;99.90
76936;DHT22;65881;52.438;16.744;2023-12-28T12:54:41;7.30;99.90
76936;DHT22;65881;52.438;16.744;2023-12-28T12:57:13;7.30;99.90
76936;DHT22;65881;52.438;16.744;2023-12-28T12:59:42;7.40;99.90
76936;DHT22;65881;52.438;16.744;2023-12-28T13:02:10;7.40;99.90
76936;DHT22;65881;52.438;16.744;2023-12-28T13:04:38;7.40;99.90
76936;DHT22;65881;52.438;16.744;2023-12-28T13:07:04;7.40;99.90
76936;DHT22;65881;52.438;16.744;2023-12-28T13:09:30;7.40;99.90
76936;DHT22;65881;52.438;16.744;2023-12-28T13:11:56;7.40;99.90
76936;DHT22;65881;52.438;16.744;2023-12-28T13:14:22;7.30;99.90
76936;DHT22;65881;52.438;16.744;2023-12-28T13:16:47;7.20;99.90
76936;DHT22;65881;52.438;16.744;2023-12-28T13:25:16;7.00;99.90
76936;DHT22;65881;52.438;16.744;2023-12-28T13:27:56;7.00;99.90
76936;DHT22;65881;52.438;16.744;2023-12-28T13:30:22;7.00;99.90
76936;DHT22;65881;52.438;16.744;2023-12-28T13:32:51;7.00;99.90
76936;DHT22;65881;52.438;16.744;2023-12-28T13:35:17;7.00;99.90
76936;DHT22;65881;52.438;16.744;2023-12-28T13:37:49;7.00;99.90
76936;DHT22;65881;52.438;16.744;2023-12-28T13:40:27;7.00;99.90
76936;DHT22;65881;52.438;16.744;2023-12-28T13:43:00;7.00;99.90
76936;DHT22;65881;52.438;16.744;2023-12-28T13:45:26;7.00;99.90
76936;DHT22;65881;52.438;16.744;2023-12-28T13:48:10;6.90;99.90
76936;DHT22;65881;52.438;16.744;2023-12-28T13:53:17;6.80;99.90
76936;DHT22;65881;52.438;16.744;2023-12-28T13:55:58;6.80;99.90
76936;DHT22;65881;52.438;16.744;2023-12-28T13:58:24;6.70;99.90
76936;DHT22;65881;52.438;16.744;2023-12-28T14:01:17;6.60;99.90
76936;DHT22;65881;52.438;16.744;2023-12-28T14:07:28;6.40;99.90
76936;DHT22;65881;52.438;16.744;2023-12-28T14:13:16;6.40;99.90
76936;DHT22;65881;52.438;16.744;2023-12-28T14:15:51;6.30;99.90
76936;DHT22;65881;52.438;16.744;2023-12-28T14:18:23;6.30;99.90
76936;DHT22;65881;52.438;16.744;2023-12-28T14:20:49;6.30;99.90
76936;DHT22;65881;52.438;16.744;2023-12-28T14:23:16;6.30;99.90
76936;DHT22;65881;52.438;16.744;2023-12-28T14:25:42;6.30;99.90
76936;DHT22;65881;52.438;16.744;2023-12-28T14:28:11;6.30;99.90
76936;DHT22;65881;52.438;16.744;2023-12-28T14:30:37;6.20;99.90
76936;DHT22;65881;52.438;16.744;2023-12-28T14:33:03;6.20;99.90
76936;DHT22;65881;52.438;16.744;2023-12-28T14:35:29;6.20;99.90
76936;DHT22;65881;52.438;16.744;2023-12-28T14:37:55;6.10;99.90
76936;DHT22;65881;52.438;16.744;2023-12-28T14:40:21;6.10;99.90
76936;DHT22;65881;52.438;16.744;2023-12-28T14:42:46;6.00;99.90
76936;DHT22;65881;52.438;16.744;2023-12-28T14:45:12;6.00;99.90
76936;DHT22;65881;52.438;16.744;2023-12-28T14:47:37;5.90;99.90
76936;DHT22;65881;52.438;16.744;2023-12-28T14:50:03;5.90;99.90
76936;DHT22;65881;52.438;16.744;2023-12-28T14:52:31;5.80;99.90
76936;DHT22;65881;52.438;16.744;2023-12-28T14:54:56;5.80;99.90
76936;DHT22;65881;52.438;16.744;2023-12-28T14:57:22;5.70;99.90
76936;DHT22;65881;52.438;16.744;2023-12-28T14:59:48;5.70;99.90
76936;DHT22;65881;52.438;16.744;2023-12-28T15:02:13;5.70;99.90
76936;DHT22;65881;52.438;16.744;2023-12-28T15:04:39;5.60;99.90
76936;DHT22;65881;52.438;16.744;2023-12-28T15:07:06;5.60;99.90
76936;DHT22;65881;52.438;16.744;2023-12-28T15:09:32;5.60;99.90
76936;DHT22;65881;52.438;16.744;2023-12-28T15:11:58;5.70;99.90
76936;DHT22;65881;52.438;16.744;2023-12-28T15:14:25;5.60;99.90
76936;DHT22;65881;52.438;16.744;2023-12-28T15:16:51;5.60;99.90
76936;DHT22;65881;52.438;16.744;2023-12-28T15:19:17;5.50;99.90
76936;DHT22;65881;52.438;16.744;2023-12-28T15:21:43;5.50;99.90
76936;DHT22;65881;52.438;16.744;2023-12-28T15:24:11;5.50;99.90
76936;DHT22;65881;52.438;16.744;2023-12-28T15:26:36;5.50;99.90
76936;DHT22;65881;52.438;16.744;2023-12-28T15:29:02;5.50;99.90
76936;DHT22;65881;52.438;16.744;2023-12-28T15:31:28;5.50;99.90
76936;DHT22;65881;52.438;16.744;2023-12-28T15:33:55;5.50;99.90
76936;DHT22;65881;52.438;16.744;2023-12-28T15:36:22;5.50;99.90
76936;DHT22;65881;52.438;16.744;2023-12-28T15:38:47;5.40;99.90
76936;DHT22;65881;52.438;16.744;2023-12-28T15:41:18;5.40;99.90
76936;DHT22;65881;52.438;16.744;2023-12-28T15:43:44;5.40;99.90
76936;DHT22;65881;52.438;16.744;2023-12-28T15:46:10;5.30;99.90
76936;DHT22;65881;52.438;16.744;2023-12-28T15:48:35;5.30;99.90
76936;DHT22;65881;52.438;16.744;2023-12-28T15:51:01;5.30;99.90
76936;DHT22;65881;52.438;16.744;2023-12-28T15:53:27;5.30;99.90
76936;DHT22;65881;52.438;16.744;2023-12-28T15:55:52;5.30;99.90
76936;DHT22;65881;52.438;16.744;2023-12-28T15:58:18;5.30;99.90
76936;DHT22;65881;52.438;16.744;2023-12-28T16:00:43;5.20;99.90
76936;DHT22;65881;52.438;16.744;2023-12-28T16:03:10;5.10;99.90
76936;DHT22;65881;52.438;16.744;2023-12-28T16:05:38;5.10;99.90
76936;DHT22;65881;52.438;16.744;2023-12-28T16:08:04;5.10;99.90
76936;DHT22;65881;52.438;16.744;2023-12-28T16:10:30;5.10;99.90
76936;DHT22;65881;52.438;16.744;2023-12-28T16:12:55;5.10;99.90
76936;DHT22;65881;52.438;16.744;2023-12-28T16:15:22;5.10;99.90
76936;DHT22;65881;52.438;16.744;2023-12-28T16:17:48;5.00;99.90